createdAt,value
2022-11-10T00:01:10.719Z,1.00
2022-11-10T00:03:38.762Z,1.00
2022-11-10T00:06:06.745Z,0.63
2022-11-10T00:08:33.675Z,1.48
2022-11-10T00:11:07.125Z,1.00
2022-11-10T00:13:59.280Z,1.05
2022-11-10T00:16:44.242Z,0.93
2022-11-10T00:19:10.989Z,0.98
2022-11-10T00:21:38.012Z,1.27
2022-11-10T00:24:05.495Z,0.98
2022-11-10T00:26:32.213Z,0.90
2022-11-10T00:28:58.926Z,0.80
2022-11-10T00:31:28.732Z,1.25
2022-11-10T00:33:55.889Z,1.00
2022-11-10T00:36:22.574Z,1.00
2022-11-10T00:38:52.158Z,1.10
2022-11-10T00:41:18.966Z,1.02
2022-11-10T00:43:45.636Z,1.10
2022-11-10T00:46:12.304Z,1.30
2022-11-10T00:48:39.096Z,1.40
2022-11-10T00:51:05.815Z,1.20
2022-11-10T00:53:32.947Z,1.35
2022-11-10T00:55:59.581Z,1.60
2022-11-10T00:58:26.359Z,1.60
2022-11-10T01:01:02.356Z,1.40
2022-11-10T01:03:29.215Z,1.00
2022-11-10T01:05:56.052Z,1.10
2022-11-10T01:08:22.822Z,1.33
2022-11-10T01:10:49.518Z,0.95
2022-11-10T01:13:16.179Z,1.27
2022-11-10T01:15:43.357Z,1.17
2022-11-10T01:18:10.031Z,0.90
2022-11-10T01:20:37.245Z,1.00
2022-11-10T01:23:04.085Z,0.98
2022-11-10T01:25:30.800Z,1.15
2022-11-10T01:27:57.443Z,1.13
2022-11-10T01:30:24.205Z,0.93
2022-11-10T01:32:50.919Z,0.77
2022-11-10T01:35:17.722Z,0.90
2022-11-10T01:37:45.935Z,1.00
2022-11-10T01:40:13.202Z,1.10
2022-11-10T01:42:51.870Z,0.90
2022-11-10T01:45:24.859Z,1.10
2022-11-10T01:47:55.255Z,1.10
2022-11-10T01:50:23.287Z,1.02
2022-11-10T01:52:52.610Z,1.20
2022-11-10T01:55:19.441Z,1.27
2022-11-10T01:57:46.281Z,1.30
2022-11-10T02:00:13.366Z,0.82
2022-11-10T02:02:44.937Z,1.20
2022-11-10T02:05:11.573Z,1.15
2022-11-10T02:07:38.464Z,1.20
2022-11-10T02:10:06.092Z,0.90
2022-11-10T02:12:38.857Z,1.10
2022-11-10T02:15:07.871Z,1.70
2022-11-10T02:17:34.938Z,1.20
2022-11-10T02:20:13.085Z,1.23
2022-11-10T02:22:39.952Z,0.95
2022-11-10T02:25:07.407Z,1.30
2022-11-10T02:27:34.194Z,0.93
2022-11-10T02:30:01.891Z,1.35
2022-11-10T02:32:28.931Z,0.98
2022-11-10T02:34:55.702Z,1.33
2022-11-10T02:37:22.441Z,1.00
2022-11-10T02:39:49.144Z,1.15
2022-11-10T02:42:16.173Z,0.88
2022-11-10T02:44:43.036Z,1.95
2022-11-10T02:47:09.664Z,1.13
2022-11-10T02:49:36.367Z,1.20
2022-11-10T02:52:03.188Z,1.17
2022-11-10T02:54:29.881Z,1.30
2022-11-10T02:56:59.522Z,1.30
2022-11-10T02:59:26.209Z,1.20
2022-11-10T03:01:52.879Z,1.30
2022-11-10T03:04:19.655Z,1.08
2022-11-10T03:06:46.457Z,1.20
2022-11-10T03:09:13.223Z,1.13
2022-11-10T03:11:39.985Z,1.45
2022-11-10T03:14:06.683Z,1.15
2022-11-10T03:16:33.426Z,1.38
2022-11-10T03:19:00.327Z,1.35
2022-11-10T03:21:27.126Z,1.50
2022-11-10T03:23:53.762Z,1.08
2022-11-10T03:26:20.489Z,1.35
2022-11-10T03:28:47.162Z,1.42
2022-11-10T03:31:14.072Z,1.45
2022-11-10T03:33:40.837Z,1.30
2022-11-10T03:36:07.777Z,1.60
2022-11-10T03:38:34.596Z,1.70
2022-11-10T03:41:18.687Z,1.35
2022-11-10T03:43:46.735Z,1.40
2022-11-10T03:46:13.573Z,1.15
2022-11-10T03:48:40.321Z,1.63
2022-11-10T03:51:07.271Z,1.23
2022-11-10T03:53:34.200Z,1.35
2022-11-10T03:56:02.070Z,1.05
2022-11-10T03:58:28.812Z,1.38
2022-11-10T04:00:56.070Z,1.50
2022-11-10T04:03:23.362Z,1.80
2022-11-10T04:06:08.898Z,1.40
2022-11-10T04:08:54.684Z,1.13
2022-11-10T04:11:40.364Z,1.30
2022-11-10T04:14:25.539Z,1.65
2022-11-10T04:16:52.284Z,1.42
2022-11-10T04:19:19.126Z,1.30
2022-11-10T04:21:48.998Z,1.42
2022-11-10T04:24:15.983Z,2.03
2022-11-10T04:26:43.442Z,1.17
2022-11-10T04:29:11.625Z,1.33
2022-11-10T04:31:40.660Z,1.48
2022-11-10T04:34:09.502Z,1.45
2022-11-10T04:36:38.278Z,2.42
2022-11-10T04:39:06.046Z,1.83
2022-11-10T04:41:33.194Z,1.45
2022-11-10T04:44:00.579Z,2.10
2022-11-10T04:46:29.643Z,1.38
2022-11-10T04:48:57.512Z,1.23
2022-11-10T04:51:36.045Z,1.35
2022-11-10T04:54:03.180Z,1.65
2022-11-10T04:56:29.921Z,1.20
2022-11-10T04:58:56.662Z,2.50
2022-11-10T05:01:26.138Z,1.20
2022-11-10T05:03:53.178Z,1.42
2022-11-10T05:06:19.997Z,1.60
2022-11-10T05:08:47.662Z,1.52
2022-11-10T05:11:14.974Z,1.40
2022-11-10T05:13:42.434Z,1.52
2022-11-10T05:16:09.605Z,1.65
2022-11-10T05:18:36.623Z,1.60
2022-11-10T05:21:03.592Z,1.83
2022-11-10T05:23:39.392Z,1.77
2022-11-10T05:26:14.362Z,1.48
2022-11-10T05:28:43.146Z,1.45
2022-11-10T05:31:10.601Z,1.38
2022-11-10T05:33:38.162Z,1.73
2022-11-10T05:36:06.461Z,1.50
2022-11-10T05:38:33.283Z,1.52
2022-11-10T05:41:00.766Z,1.58
2022-11-10T05:43:27.583Z,1.88
2022-11-10T05:45:56.680Z,1.40
2022-11-10T05:48:23.731Z,1.20
2022-11-10T05:50:50.370Z,1.75
2022-11-10T05:53:17.205Z,1.42
2022-11-10T05:55:46.552Z,1.73
2022-11-10T05:58:13.306Z,1.73
2022-11-10T06:00:40.096Z,1.60
2022-11-10T06:03:10.844Z,1.38
2022-11-10T06:05:37.565Z,1.67
2022-11-10T06:08:05.733Z,1.75
2022-11-10T06:10:34.308Z,1.65
2022-11-10T06:13:01.200Z,1.40
2022-11-10T06:15:28.173Z,2.25
2022-11-10T06:17:55.367Z,2.20
2022-11-10T06:20:22.210Z,1.40
2022-11-10T06:23:06.458Z,2.03
2022-11-10T06:25:38.201Z,2.40
2022-11-10T06:28:06.388Z,1.77
2022-11-10T06:30:34.560Z,1.65
2022-11-10T06:33:01.749Z,1.83
2022-11-10T06:35:29.271Z,1.95
2022-11-10T06:38:04.098Z,1.67
2022-11-10T06:40:32.373Z,2.00
2022-11-10T06:42:59.731Z,1.92
2022-11-10T06:45:28.671Z,2.08
2022-11-10T06:48:10.226Z,1.60
2022-11-10T06:50:36.945Z,1.92
2022-11-10T06:53:03.893Z,1.58
2022-11-10T06:55:31.465Z,1.98
2022-11-10T06:57:58.399Z,1.98
2022-11-10T07:00:26.272Z,1.90
2022-11-10T07:03:14.106Z,1.75
2022-11-10T07:05:40.939Z,3.72
2022-11-10T07:08:10.347Z,1.42
2022-11-10T07:10:37.428Z,1.98
2022-11-10T07:13:04.953Z,1.65
2022-11-10T07:15:31.906Z,1.77
2022-11-10T07:17:58.726Z,1.90
2022-11-10T07:20:26.526Z,1.58
2022-11-10T07:23:04.702Z,1.40
2022-11-10T07:25:33.490Z,1.65
2022-11-10T07:28:01.568Z,1.70
2022-11-10T07:30:30.192Z,1.83
2022-11-10T07:33:26.838Z,1.73
2022-11-10T07:35:58.042Z,2.15
2022-11-10T07:38:24.739Z,1.77
2022-11-10T07:40:53.281Z,2.03
2022-11-10T07:43:21.397Z,2.05
2022-11-10T07:45:50.060Z,2.05
2022-11-10T07:48:16.889Z,2.15
2022-11-10T07:50:44.950Z,2.47
2022-11-10T07:53:22.852Z,1.92
2022-11-10T07:55:49.977Z,1.40
2022-11-10T07:58:17.952Z,2.30
2022-11-10T08:00:45.826Z,1.63
2022-11-10T08:03:21.067Z,2.33
2022-11-10T08:05:48.007Z,1.63
2022-11-10T08:08:14.957Z,2.00
2022-11-10T08:10:42.211Z,2.33
2022-11-10T08:13:11.258Z,2.42
2022-11-10T08:15:38.635Z,2.20
2022-11-10T08:18:08.173Z,2.90
2022-11-10T08:20:34.970Z,2.20
2022-11-10T08:23:06.143Z,1.85
2022-11-10T08:25:35.704Z,1.40
2022-11-10T08:28:10.600Z,2.03
2022-11-10T08:30:39.949Z,1.67
2022-11-10T08:33:08.140Z,2.63
2022-11-10T08:35:37.414Z,1.80
2022-11-10T08:38:12.551Z,2.15
2022-11-10T08:40:40.158Z,2.45
2022-11-10T08:43:07.984Z,1.92
2022-11-10T08:45:36.177Z,2.00
2022-11-10T08:48:08.162Z,2.08
2022-11-10T08:50:35.362Z,2.13
2022-11-10T08:53:06.737Z,2.03
2022-11-10T08:55:33.503Z,2.33
2022-11-10T08:58:01.566Z,2.35
2022-11-10T09:00:29.234Z,1.80
2022-11-10T09:02:56.848Z,2.17
2022-11-10T09:05:23.850Z,2.28
2022-11-10T09:07:50.816Z,2.53
2022-11-10T09:10:17.620Z,2.75
2022-11-10T09:12:44.272Z,2.47
2022-11-10T09:15:11.501Z,2.72
2022-11-10T09:17:39.180Z,2.38
2022-11-10T09:20:06.748Z,2.78
2022-11-10T09:22:35.817Z,2.53
2022-11-10T09:25:02.787Z,2.40
2022-11-10T09:27:29.507Z,2.40
2022-11-10T09:29:56.187Z,2.55
2022-11-10T09:32:22.901Z,2.53
2022-11-10T09:34:52.924Z,2.30
2022-11-10T09:37:19.965Z,1.88
2022-11-10T09:39:46.609Z,2.35
2022-11-10T09:42:29.974Z,2.25
2022-11-10T09:45:03.714Z,2.22
2022-11-10T09:48:00.901Z,2.65
2022-11-10T09:50:41.742Z,2.20
2022-11-10T09:53:18.358Z,2.40
2022-11-10T09:55:49.754Z,2.92
2022-11-10T09:58:16.653Z,2.60
2022-11-10T10:00:50.539Z,2.10
2022-11-10T10:03:22.789Z,2.10
2022-11-10T10:06:09.083Z,2.20
2022-11-10T10:08:56.646Z,2.63
2022-11-10T10:11:50.789Z,2.55
2022-11-10T10:14:33.364Z,2.20
2022-11-10T10:17:10.960Z,2.25
2022-11-10T10:19:50.742Z,2.05
2022-11-10T10:22:34.242Z,2.45
2022-11-10T10:25:04.406Z,2.55
2022-11-10T10:27:32.057Z,2.22
2022-11-10T10:29:58.775Z,1.77
2022-11-10T10:32:26.833Z,2.30
2022-11-10T10:34:53.557Z,1.90
2022-11-10T10:37:25.877Z,1.92
2022-11-10T10:39:55.686Z,2.03
2022-11-10T10:42:33.550Z,2.40
2022-11-10T10:45:21.526Z,1.67
2022-11-10T10:47:53.491Z,3.42
2022-11-10T10:50:36.039Z,2.05
2022-11-10T10:53:16.067Z,2.42
2022-11-10T10:55:47.457Z,1.88
2022-11-10T10:58:26.122Z,1.85
2022-11-10T11:00:55.552Z,2.20
2022-11-10T11:03:27.957Z,2.28
2022-11-10T11:06:28.999Z,2.00
2022-11-10T11:08:59.629Z,1.60
2022-11-10T11:11:35.598Z,2.58
2022-11-10T11:14:27.113Z,2.13
2022-11-10T11:16:55.393Z,2.15
2022-11-10T11:19:27.751Z,1.63
2022-11-10T11:22:16.103Z,1.67
2022-11-10T11:25:19.914Z,2.58
2022-11-10T11:27:58.539Z,1.98
2022-11-10T11:30:30.491Z,1.70
2022-11-10T11:33:11.925Z,1.73
2022-11-10T11:36:17.318Z,2.70
2022-11-10T11:39:35.390Z,2.60
2022-11-10T11:42:20.545Z,2.13
2022-11-10T11:45:19.431Z,1.90
2022-11-10T11:48:17.037Z,2.00
2022-11-10T11:50:59.141Z,2.08
2022-11-10T11:53:47.898Z,2.08
2022-11-10T11:56:37.965Z,2.28
2022-11-10T11:59:32.336Z,2.10
2022-11-10T12:02:26.696Z,2.47
2022-11-10T12:05:12.404Z,1.92
2022-11-10T12:08:27.367Z,1.95
2022-11-10T12:11:31.635Z,2.17
2022-11-10T12:14:14.930Z,1.92
2022-11-10T12:16:49.849Z,2.03
2022-11-10T12:19:22.367Z,1.80
2022-11-10T12:21:52.853Z,2.17
2022-11-10T12:24:28.158Z,1.75
2022-11-10T12:27:01.435Z,1.73
2022-11-10T12:29:35.115Z,1.80
2022-11-10T12:32:17.804Z,2.03
2022-11-10T12:35:13.694Z,1.75
2022-11-10T12:37:45.534Z,2.05
2022-11-10T12:40:17.460Z,1.90
2022-11-10T12:42:47.123Z,1.85
2022-11-10T12:45:40.120Z,2.25
2022-11-10T12:48:10.091Z,1.77
2022-11-10T12:50:51.030Z,2.30
2022-11-10T12:53:24.246Z,1.55
2022-11-10T12:56:00.870Z,1.90
2022-11-10T12:58:28.432Z,1.55
2022-11-10T13:01:18.928Z,1.85
2022-11-10T13:03:57.183Z,1.88
2022-11-10T13:06:27.306Z,2.45
2022-11-10T13:08:54.620Z,1.65
2022-11-10T13:11:22.834Z,2.00
2022-11-10T13:13:59.268Z,3.05
2022-11-10T13:16:42.081Z,1.77
2022-11-10T13:19:10.244Z,1.73
2022-11-10T13:21:51.937Z,1.63
2022-11-10T13:24:36.225Z,1.70
2022-11-10T13:27:11.736Z,1.77
2022-11-10T13:29:47.725Z,1.50
2022-11-10T13:32:14.407Z,1.50
2022-11-10T13:34:47.669Z,2.13
2022-11-10T13:37:35.152Z,2.03
2022-11-10T13:40:16.981Z,1.63
2022-11-10T13:42:58.716Z,1.98
2022-11-10T13:45:30.544Z,1.70
2022-11-10T13:48:12.582Z,1.67
2022-11-10T13:51:08.767Z,1.80
2022-11-10T13:53:57.214Z,2.22
2022-11-10T13:57:01.123Z,1.88
2022-11-10T13:59:31.071Z,1.88
2022-11-10T14:02:36.460Z,1.75
2022-11-10T14:05:04.697Z,2.25
2022-11-10T14:07:37.517Z,1.40
2022-11-10T14:10:09.855Z,1.58
2022-11-10T14:12:56.423Z,2.03
2022-11-10T14:15:25.273Z,1.45
2022-11-10T14:17:54.079Z,1.33
2022-11-10T14:20:43.541Z,2.22
2022-11-10T14:23:46.289Z,1.70
2022-11-10T14:26:36.068Z,1.80
2022-11-10T14:29:28.284Z,1.83
2022-11-10T14:31:59.691Z,1.30
2022-11-10T14:34:27.039Z,1.83
2022-11-10T14:36:58.309Z,1.30
2022-11-10T14:39:32.984Z,1.95
2022-11-10T14:42:01.976Z,1.50
2022-11-10T14:44:30.196Z,1.58
2022-11-10T14:46:59.451Z,2.25
2022-11-10T14:49:26.767Z,2.08
2022-11-10T14:51:57.614Z,2.60
2022-11-10T14:54:27.808Z,1.98
2022-11-10T14:56:55.565Z,2.58
2022-11-10T14:59:23.664Z,2.30
2022-11-10T15:01:58.526Z,1.60
2022-11-10T15:04:28.950Z,3.00
2022-11-10T15:06:57.104Z,1.85
2022-11-10T15:09:27.705Z,1.80
2022-11-10T15:12:07.705Z,1.85
2022-11-10T15:14:41.216Z,1.65
2022-11-10T15:17:14.644Z,1.77
2022-11-10T15:19:44.511Z,1.70
2022-11-10T15:22:18.195Z,1.23
2022-11-10T15:24:47.559Z,1.45
2022-11-10T15:27:26.929Z,2.00
2022-11-10T15:29:54.388Z,2.05
2022-11-10T15:32:23.016Z,1.55
2022-11-10T15:34:50.700Z,1.75
2022-11-10T15:37:30.738Z,1.67
2022-11-10T15:40:46.042Z,1.75
2022-11-10T15:43:26.636Z,1.85
2022-11-10T15:45:57.875Z,2.08
2022-11-10T15:48:25.136Z,1.60
2022-11-10T15:50:56.037Z,2.10
2022-11-10T15:53:31.815Z,1.63
2022-11-10T15:55:58.575Z,2.22
2022-11-10T15:58:26.800Z,2.20
2022-11-10T16:00:53.617Z,1.80
2022-11-10T16:03:21.634Z,1.70
2022-11-10T16:05:48.611Z,2.25
2022-11-10T16:08:18.702Z,2.33
2022-11-10T16:10:50.712Z,2.42
2022-11-10T16:13:27.973Z,2.10
2022-11-10T16:15:57.291Z,2.50
2022-11-10T16:18:29.197Z,2.83
2022-11-10T16:20:56.488Z,2.78
2022-11-10T16:23:23.437Z,2.83
2022-11-10T16:25:51.744Z,2.90
2022-11-10T16:28:22.340Z,2.33
2022-11-10T16:30:50.823Z,2.60
2022-11-10T16:33:19.507Z,2.40
2022-11-10T16:35:49.828Z,2.35
2022-11-10T16:38:25.974Z,2.67
2022-11-10T16:41:01.439Z,2.47
2022-11-10T16:43:29.817Z,2.88
2022-11-10T16:45:58.974Z,1.80
2022-11-10T16:48:30.994Z,2.42
2022-11-10T16:50:58.916Z,2.90
2022-11-10T16:53:28.211Z,3.20
2022-11-10T16:55:55.580Z,1.77
2022-11-10T16:58:25.029Z,2.85
2022-11-10T17:00:54.197Z,2.80
2022-11-10T17:03:42.584Z,2.20
2022-11-10T17:06:13.705Z,2.65
2022-11-10T17:08:41.827Z,3.13
2022-11-10T17:11:09.284Z,3.22
2022-11-10T17:13:37.074Z,2.95
2022-11-10T17:16:06.900Z,2.38
2022-11-10T17:18:34.788Z,2.28
2022-11-10T17:21:02.735Z,3.05
2022-11-10T17:23:29.869Z,2.80
2022-11-10T17:25:56.764Z,3.05
2022-11-10T17:28:23.591Z,3.35
2022-11-10T17:30:52.669Z,4.32
2022-11-10T17:33:20.067Z,3.17
2022-11-10T17:35:48.740Z,4.22
2022-11-10T17:38:26.943Z,3.50
2022-11-10T17:40:54.069Z,3.15
2022-11-10T17:43:21.820Z,3.33
2022-11-10T17:45:49.375Z,2.53
2022-11-10T17:48:16.126Z,3.20
2022-11-10T17:50:44.196Z,3.53
2022-11-10T17:53:22.433Z,3.80
2022-11-10T17:55:49.754Z,4.05
2022-11-10T17:58:17.725Z,3.42
2022-11-10T18:00:45.387Z,2.03
2022-11-10T18:03:16.762Z,2.45
2022-11-10T18:05:43.881Z,2.25
2022-11-10T18:08:13.918Z,1.67
2022-11-10T18:10:46.834Z,3.35
2022-11-10T18:13:13.563Z,2.10
2022-11-10T18:15:47.838Z,1.88
2022-11-10T18:18:18.062Z,2.25
2022-11-10T18:20:45.622Z,2.63
2022-11-10T18:23:12.784Z,2.28
2022-11-10T18:25:40.335Z,2.97
2022-11-10T18:28:07.380Z,2.88
2022-11-10T18:30:35.409Z,2.47
2022-11-10T18:33:03.310Z,2.72
2022-11-10T18:35:30.768Z,3.85
2022-11-10T18:38:00.003Z,2.47
2022-11-10T18:40:26.930Z,2.35
2022-11-10T18:43:00.688Z,2.50
2022-11-10T18:45:29.827Z,2.58
2022-11-10T18:48:01.778Z,2.10
2022-11-10T18:50:28.730Z,2.38
2022-11-10T18:52:55.572Z,2.63
2022-11-10T18:55:22.228Z,2.88
2022-11-10T18:57:49.154Z,2.78
2022-11-10T19:00:16.512Z,3.17
2022-11-10T19:02:43.137Z,2.85
2022-11-10T19:05:10.013Z,3.13
2022-11-10T19:07:36.826Z,3.05
2022-11-10T19:10:03.797Z,3.00
2022-11-10T19:12:31.434Z,4.50
2022-11-10T19:14:58.273Z,3.78
2022-11-10T19:17:24.929Z,2.80
2022-11-10T19:19:56.584Z,1.98
2022-11-10T19:22:24.044Z,1.65
2022-11-10T19:27:37.697Z,2.85
2022-11-10T19:30:04.864Z,2.08
2022-11-10T19:32:31.684Z,2.65
2022-11-10T19:34:58.939Z,2.78
2022-11-10T19:37:27.691Z,2.33
2022-11-10T19:39:57.475Z,2.17
2022-11-10T19:42:24.107Z,2.80
2022-11-10T19:44:50.844Z,2.22
2022-11-10T19:47:17.457Z,2.78
2022-11-10T19:49:44.087Z,2.53
2022-11-10T19:52:10.854Z,2.85
2022-11-10T19:54:37.962Z,3.30
2022-11-10T19:57:04.818Z,2.75
2022-11-10T19:59:32.715Z,2.30
2022-11-10T20:01:59.520Z,2.63
2022-11-10T20:04:26.826Z,2.92
2022-11-10T20:07:14.396Z,2.30
2022-11-10T20:09:41.267Z,2.53
2022-11-10T20:12:08.287Z,2.45
2022-11-10T20:14:35.028Z,2.78
2022-11-10T20:17:01.779Z,2.72
2022-11-10T20:19:28.517Z,2.65
2022-11-10T20:21:55.247Z,2.55
2022-11-10T20:24:22.095Z,2.45
2022-11-10T20:26:50.073Z,2.00
2022-11-10T20:29:16.809Z,2.17
2022-11-10T20:31:43.551Z,2.35
2022-11-10T20:34:10.494Z,3.15
2022-11-10T20:36:37.341Z,2.47
2022-11-10T20:39:04.739Z,2.80
2022-11-10T20:41:33.067Z,2.83
2022-11-10T20:43:59.829Z,2.85
2022-11-10T20:46:52.924Z,2.50
2022-11-10T20:49:13.463Z,2.63
2022-11-10T20:51:40.924Z,2.80
2022-11-10T20:54:08.892Z,2.90
2022-11-10T20:56:35.555Z,2.35
2022-11-10T20:59:02.683Z,2.17
2022-11-10T21:01:29.471Z,2.17
2022-11-10T21:03:56.249Z,2.75
2022-11-10T21:06:23.195Z,2.25
2022-11-10T21:08:50.559Z,2.20
2022-11-10T21:11:36.320Z,2.20
2022-11-10T21:14:06.061Z,2.67
2022-11-10T21:16:32.799Z,2.53
2022-11-10T21:19:00.975Z,2.58
2022-11-10T21:21:34.123Z,2.33
2022-11-10T21:24:02.004Z,3.13
2022-11-10T21:26:28.766Z,1.95
2022-11-10T21:28:55.510Z,1.95
2022-11-10T21:31:22.274Z,2.53
2022-11-10T21:33:48.994Z,2.28
2022-11-10T21:36:15.915Z,2.28
2022-11-10T21:38:46.768Z,3.22
2022-11-10T21:41:13.755Z,2.00
2022-11-10T21:43:41.172Z,2.25
2022-11-10T21:46:08.319Z,2.22
2022-11-10T21:48:35.688Z,2.40
2022-11-10T21:51:03.435Z,2.72
2022-11-10T21:53:30.593Z,2.13
2022-11-10T21:56:01.131Z,2.85
2022-11-10T21:58:28.076Z,2.35
2022-11-10T22:01:06.544Z,2.72
2022-11-10T22:03:34.670Z,1.85
2022-11-10T22:06:14.277Z,2.45
2022-11-10T22:08:42.164Z,2.47
2022-11-10T22:11:32.448Z,2.55
2022-11-10T22:14:18.323Z,2.88
2022-11-10T22:17:05.785Z,2.20
2022-11-10T22:19:33.304Z,1.77
2022-11-10T22:22:03.691Z,2.13
2022-11-10T22:24:31.216Z,1.88
2022-11-10T22:26:59.904Z,2.70
2022-11-10T22:29:31.842Z,2.08
2022-11-10T22:31:59.886Z,2.42
2022-11-10T22:34:26.648Z,2.17
2022-11-10T22:36:54.837Z,1.80
2022-11-10T22:39:21.591Z,2.30
2022-11-10T22:42:07.149Z,2.17
2022-11-10T22:44:33.824Z,2.47
2022-11-10T22:47:00.496Z,1.90
2022-11-10T22:49:27.243Z,2.45
2022-11-10T22:51:56.915Z,2.20
2022-11-10T22:54:24.146Z,2.28
2022-11-10T22:56:51.572Z,2.28
2022-11-10T22:59:18.894Z,2.25
2022-11-10T23:01:45.663Z,2.55
2022-11-10T23:04:12.518Z,2.20
2022-11-10T23:06:39.873Z,2.00
2022-11-10T23:09:06.762Z,2.25
2022-11-10T23:11:34.035Z,2.38
2022-11-10T23:14:00.832Z,2.55
2022-11-10T23:16:29.891Z,2.28
2022-11-10T23:18:57.681Z,2.10
2022-11-10T23:21:29.080Z,2.38
2022-11-10T23:23:55.873Z,2.58
2022-11-10T23:26:27.616Z,2.03
2022-11-10T23:28:54.372Z,2.10
2022-11-10T23:31:23.381Z,2.03
2022-11-10T23:33:53.714Z,2.08
2022-11-10T23:36:21.979Z,2.13
2022-11-10T23:38:48.897Z,2.15
2022-11-10T23:41:17.700Z,1.95
2022-11-10T23:43:44.456Z,2.45
2022-11-10T23:46:11.419Z,2.65
2022-11-10T23:48:38.935Z,2.28
2022-11-10T23:51:06.910Z,2.00
2022-11-10T23:53:33.943Z,2.05
2022-11-10T23:56:02.638Z,2.35
2022-11-10T23:58:30.133Z,2.53
